X  Tanca Dades meteorològiques de l'aviació METAR     LEBL Barcelona International Airport
Temperatura
15°C Temperatura
8°C Rosada
63% Humitat



Vent
26 KM/H
16 MPH
7 M/S
14 NUS



100°
Est
Condicions actuals

Parcialment ennuvolat Parcialment ennuvolat
Pressió 1023.92 (hPa) - 30.24 (inHg)
Visibilitat 6.2 (milla) - 10 (km)
Aeroport
Codi aeroport LEBL

Ubicació: Barcelona International Airport
Distància: 14 (km)

Metar:
LEBL 281500Z 10014KT 9999 FEW030 15/08 Q1024 NOSIG

Temps: 28-02-2021 16:00 CET